PWSweather.com
Personal Weather Stations
Station Observations
KFLPOINC2
PoincianaKissimmee, Poinciana, FL 34758

PoincianaKissimmeePoinciana, FL 34758

Lat: 28.161417, Lon: -81.477557

Elevation: 62

Station Type: Ambient Weather WS 2080

High Low Average
Temperature 86.4°F30.2°F 70.7°F21.5°F 76.4°F24.7°F
Dew Point 73.1°F22.8°F 67.9°F19.9°F 70.9°F21.6°F
Winds 14.5 mph S23.3 mph S Calm Calm 5.3 mph 8.5 mph
Wind Gusts 23.5 mph37.8 mph -- 9.9 mph15.9 mph
Humidity 96% 61% 84%
Pressure 29.92 in1013.20 in 29.92 in1013.20 in -
Precipitation 0.58 in14.70 in - -
Hour Temp Dew Point Humidity Winds Wind Gusts Pressure Precip Precip Rate Daily Precip Total
12:00 AM 72.0°F22.2°C 67.9°F19.9°C 87% 3.8 mph ESE6.1 kmh ESE 11.4 mph18.3 kmh 29.92 in1013.2 mb 0.00 in0.0 mm 0.00 in/hr0.0 mm/hr 0.00 in0.0 mm
12:05 AM 72.0°F22.2°C 67.9°F19.9°C 87% 3.1 mph ESE5.0 kmh ESE 9.8 mph15.8 kmh 29.92 in1013.2 mb 0.00 in0.0 mm 0.00 in/hr0.0 mm/hr 0.00 in0.0 mm
12:10 AM 72.0°F22.2°C 67.9°F19.9°C 87% 5.4 mph ESE8.7 kmh ESE 9.8 mph15.8 kmh 29.92 in1013.2 mb 0.00 in0.0 mm 0.00 in/hr0.0 mm/hr 0.00 in0.0 mm
12:15 AM 71.6°F22.0°C 67.9°F19.9°C 88% 6.0 mph E9.7 kmh E 11.4 mph18.3 kmh 29.92 in1013.2 mb 0.00 in0.0 mm 0.00 in/hr0.0 mm/hr 0.00 in0.0 mm
12:20 AM 72.0°F22.2°C 67.9°F19.9°C 87% 6.9 mph E11.1 kmh E 11.4 mph18.3 kmh 29.92 in1013.2 mb 0.00 in0.0 mm 0.00 in/hr0.0 mm/hr 0.00 in0.0 mm
12:25 AM 71.8°F22.1°C 68.1°F20.1°C 88% 5.4 mph E8.7 kmh E 11.4 mph18.3 kmh 29.92 in1013.2 mb 0.00 in0.0 mm 0.00 in/hr0.0 mm/hr 0.00 in0.0 mm
12:30 AM 72.0°F22.2°C 68.2°F20.1°C 88% 6.0 mph ESE9.7 kmh ESE 12.1 mph19.5 kmh 29.92 in1013.2 mb 0.00 in0.0 mm 0.00 in/hr0.0 mm/hr 0.00 in0.0 mm
12:35 AM 71.6°F22.0°C 67.9°F19.9°C 88% 3.8 mph SE6.1 kmh SE 12.1 mph19.5 kmh 29.92 in1013.2 mb 0.00 in0.0 mm 0.00 in/hr0.0 mm/hr 0.00 in0.0 mm
12:40 AM 71.8°F22.1°C 68.1°F20.1°C 88% 5.4 mph ESE8.7 kmh ESE 9.8 mph15.8 kmh 29.92 in1013.2 mb 0.00 in0.0 mm 0.00 in/hr0.0 mm/hr 0.00 in0.0 mm
12:45 AM 71.8°F22.1°C 68.1°F20.1°C 88% 7.6 mph ESE12.2 kmh ESE 11.4 mph18.3 kmh 29.92 in1013.2 mb 0.00 in0.0 mm 0.00 in/hr0.0 mm/hr 0.00 in0.0 mm
12:50 AM 72.1°F22.3°C 68.4°F20.2°C 88% 3.8 mph ESE6.1 kmh ESE 11.4 mph18.3 kmh 29.92 in1013.2 mb 0.00 in0.0 mm 0.00 in/hr0.0 mm/hr 0.00 in0.0 mm
12:55 AM 72.0°F22.2°C 68.2°F20.1°C 88% 8.3 mph SE13.4 kmh SE 13.0 mph20.9 kmh 29.92 in1013.2 mb 0.00 in0.0 mm 0.00 in/hr0.0 mm/hr 0.00 in0.0 mm
01:00 AM 71.8°F22.1°C 68.1°F20.1°C 88% 6.0 mph SE9.7 kmh SE 13.0 mph20.9 kmh 29.92 in1013.2 mb 0.00 in0.0 mm 0.00 in/hr0.0 mm/hr 0.00 in0.0 mm
01:05 AM 71.8°F22.1°C 68.1°F20.1°C 88% 6.0 mph SE9.7 kmh SE 12.1 mph19.5 kmh 29.92 in1013.2 mb 0.00 in0.0 mm 0.00 in/hr0.0 mm/hr 0.00 in0.0 mm
01:10 AM 71.8°F22.1°C 68.1°F20.1°C 88% 5.4 mph SE8.7 kmh SE 9.8 mph15.8 kmh 29.92 in1013.2 mb 0.00 in0.0 mm 0.00 in/hr0.0 mm/hr 0.00 in0.0 mm
01:15 AM 71.2°F21.8°C 68.2°F20.1°C 90% 5.4 mph ESE8.7 kmh ESE 12.1 mph19.5 kmh 29.92 in1013.2 mb 0.00 in0.0 mm 0.00 in/hr0.0 mm/hr 0.00 in0.0 mm
01:20 AM 71.6°F22.0°C 68.2°F20.1°C 89% 3.8 mph ESE6.1 kmh ESE 12.1 mph19.5 kmh 29.92 in1013.2 mb 0.00 in0.0 mm 0.00 in/hr0.0 mm/hr 0.00 in0.0 mm
01:25 AM 71.2°F21.8°C 68.2°F20.1°C 90% 3.8 mph E6.1 kmh E 12.1 mph19.5 kmh 29.92 in1013.2 mb 0.00 in0.0 mm 0.00 in/hr0.0 mm/hr 0.00 in0.0 mm
01:30 AM 71.2°F21.8°C 68.5°F20.3°C 91% 6.9 mph E11.1 kmh E 9.8 mph15.8 kmh 29.92 in1013.2 mb 0.00 in0.0 mm 0.00 in/hr0.0 mm/hr 0.00 in0.0 mm
01:35 AM 71.6°F22.0°C 68.5°F20.3°C 90% 6.0 mph ESE9.7 kmh ESE 11.4 mph18.3 kmh 29.92 in1013.2 mb 0.00 in0.0 mm 0.00 in/hr0.0 mm/hr 0.00 in0.0 mm
01:40 AM 71.2°F21.8°C 68.5°F20.3°C 91% 6.9 mph SE11.1 kmh SE 11.4 mph18.3 kmh 29.92 in1013.2 mb 0.00 in0.0 mm 0.00 in/hr0.0 mm/hr 0.00 in0.0 mm
01:45 AM 71.1°F21.7°C 68.3°F20.2°C 91% 6.0 mph SE9.7 kmh SE 12.1 mph19.5 kmh 29.92 in1013.2 mb 0.00 in0.0 mm 0.00 in/hr0.0 mm/hr 0.00 in0.0 mm
01:50 AM 71.1°F21.7°C 68.7°F20.4°C 92% 6.9 mph ESE11.1 kmh ESE 12.1 mph19.5 kmh 29.92 in1013.2 mb 0.00 in0.0 mm 0.00 in/hr0.0 mm/hr 0.00 in0.0 mm
01:55 AM 71.1°F21.7°C 68.7°F20.4°C 92% 6.0 mph E9.7 kmh E 9.8 mph15.8 kmh 29.92 in1013.2 mb 0.00 in0.0 mm 0.00 in/hr0.0 mm/hr 0.00 in0.0 mm
02:00 AM 70.9°F21.6°C 68.5°F20.3°C 92% 4.5 mph E7.2 kmh E 9.8 mph15.8 kmh 29.92 in1013.2 mb 0.00 in0.0 mm 0.00 in/hr0.0 mm/hr 0.00 in0.0 mm
02:05 AM 70.9°F21.6°C 68.8°F20.4°C 93% 5.4 mph E8.7 kmh E 9.8 mph15.8 kmh 29.92 in1013.2 mb 0.00 in0.0 mm 0.00 in/hr0.0 mm/hr 0.00 in0.0 mm
02:10 AM 70.9°F21.6°C 68.8°F20.4°C 93% 5.4 mph ESE8.7 kmh ESE 13.0 mph20.9 kmh 29.92 in1013.2 mb 0.00 in0.0 mm 0.00 in/hr0.0 mm/hr 0.00 in0.0 mm
02:15 AM 70.9°F21.6°C 68.8°F20.4°C 93% 4.5 mph ESE7.2 kmh ESE 13.0 mph20.9 kmh 29.92 in1013.2 mb 0.00 in0.0 mm 0.00 in/hr0.0 mm/hr 0.00 in0.0 mm
02:20 AM 70.9°F21.6°C 68.8°F20.4°C 93% 3.1 mph ESE5.0 kmh ESE 9.2 mph14.8 kmh 29.92 in1013.2 mb 0.00 in0.0 mm 0.00 in/hr0.0 mm/hr 0.00 in0.0 mm
02:25 AM 70.9°F21.6°C 68.8°F20.4°C 93% 3.8 mph SE6.1 kmh SE 9.2 mph14.8 kmh 29.92 in1013.2 mb 0.00 in0.0 mm 0.00 in/hr0.0 mm/hr 0.00 in0.0 mm
02:30 AM 70.9°F21.6°C 69.1°F20.6°C 94% 5.4 mph ESE8.7 kmh ESE 9.2 mph14.8 kmh 29.92 in1013.2 mb 0.00 in0.0 mm 0.00 in/hr0.0 mm/hr 0.00 in0.0 mm
02:35 AM 71.1°F21.7°C 69.0°F20.6°C 93% 3.1 mph E5.0 kmh E 9.2 mph14.8 kmh 29.92 in1013.2 mb 0.00 in0.0 mm 0.00 in/hr0.0 mm/hr 0.00 in0.0 mm
02:40 AM 70.9°F21.6°C 69.1°F20.6°C 94% 0.7 mph ESE1.1 kmh ESE 9.2 mph14.8 kmh 29.92 in1013.2 mb 0.01 in0.3 mm 0.12 in/hr3.0 mm/hr 0.01 in0.3 mm
02:45 AM 70.7°F21.5°C 68.9°F20.5°C 94% 3.8 mph ESE6.1 kmh ESE 8.3 mph13.4 kmh 29.92 in1013.2 mb 0.02 in0.5 mm 0.12 in/hr3.0 mm/hr 0.02 in0.5 mm
02:50 AM 70.7°F21.5°C 68.9°F20.5°C 94% 2.2 mph SE3.5 kmh SE 6.0 mph9.7 kmh 29.92 in1013.2 mb 0.04 in1.0 mm 0.24 in/hr6.1 mm/hr 0.04 in1.0 mm
02:55 AM 70.7°F21.5°C 68.9°F20.5°C 94% 3.8 mph SE6.1 kmh SE 6.0 mph9.7 kmh 29.92 in1013.2 mb 0.04 in1.0 mm 0.00 in/hr0.0 mm/hr 0.04 in1.0 mm
03:00 AM 70.7°F21.5°C 68.9°F20.5°C 94% 1.6 mph SE2.6 kmh SE 5.4 mph8.7 kmh 29.92 in1013.2 mb 0.04 in1.0 mm 0.00 in/hr0.0 mm/hr 0.04 in1.0 mm
03:05 AM 70.7°F21.5°C 68.9°F20.5°C 94% 1.6 mph SE2.6 kmh SE 5.4 mph8.7 kmh 29.92 in1013.2 mb 0.04 in1.0 mm 0.00 in/hr0.0 mm/hr 0.04 in1.0 mm
03:10 AM 70.9°F21.6°C 69.1°F20.6°C 94% 6.0 mph SE9.7 kmh SE 8.3 mph13.4 kmh 29.92 in1013.2 mb 0.04 in1.0 mm 0.00 in/hr0.0 mm/hr 0.04 in1.0 mm
03:15 AM 70.9°F21.6°C 69.4°F20.8°C 95% 6.9 mph ESE11.1 kmh ESE 9.2 mph14.8 kmh 29.92 in1013.2 mb 0.04 in1.0 mm 0.00 in/hr0.0 mm/hr 0.04 in1.0 mm
03:20 AM 71.1°F21.7°C 69.6°F20.9°C 95% 4.5 mph ESE7.2 kmh ESE 9.8 mph15.8 kmh 29.92 in1013.2 mb 0.04 in1.0 mm 0.00 in/hr0.0 mm/hr 0.04 in1.0 mm
03:25 AM 70.9°F21.6°C 69.4°F20.8°C 95% 6.0 mph SE9.7 kmh SE 9.8 mph15.8 kmh 29.92 in1013.2 mb 0.04 in1.0 mm 0.00 in/hr0.0 mm/hr 0.04 in1.0 mm
03:30 AM 71.1°F21.7°C 69.6°F20.9°C 95% 4.5 mph SE7.2 kmh SE 10.7 mph17.2 kmh 29.92 in1013.2 mb 0.04 in1.0 mm 0.00 in/hr0.0 mm/hr 0.04 in1.0 mm
03:35 AM 71.1°F21.7°C 69.6°F20.9°C 95% 6.0 mph SE9.7 kmh SE 12.1 mph19.5 kmh 29.92 in1013.2 mb 0.04 in1.0 mm 0.00 in/hr0.0 mm/hr 0.04 in1.0 mm
03:40 AM 71.2°F21.8°C 69.8°F21.0°C 95% 5.4 mph SE8.7 kmh SE 12.1 mph19.5 kmh 29.92 in1013.2 mb 0.02 in0.5 mm 0.00 in/hr0.0 mm/hr 0.04 in1.0 mm
03:45 AM 71.4°F21.9°C 70.0°F21.1°C 95% 7.6 mph SE12.2 kmh SE 12.1 mph19.5 kmh 29.92 in1013.2 mb 0.01 in0.3 mm 0.00 in/hr0.0 mm/hr 0.04 in1.0 mm
03:50 AM 71.2°F21.8°C 69.8°F21.0°C 95% 6.9 mph SE11.1 kmh SE 13.0 mph20.9 kmh 29.92 in1013.2 mb 0.00 in0.0 mm 0.00 in/hr0.0 mm/hr 0.04 in1.0 mm
03:55 AM 71.4°F21.9°C 70.0°F21.1°C 95% 5.4 mph SE8.7 kmh SE 13.0 mph20.9 kmh 29.92 in1013.2 mb 0.00 in0.0 mm 0.00 in/hr0.0 mm/hr 0.04 in1.0 mm
04:00 AM 71.2°F21.8°C 69.8°F21.0°C 95% 6.9 mph SE11.1 kmh SE 9.8 mph15.8 kmh 29.92 in1013.2 mb 0.00 in0.0 mm 0.00 in/hr0.0 mm/hr 0.04 in1.0 mm
04:05 AM 71.2°F21.8°C 69.8°F21.0°C 95% 5.4 mph SE8.7 kmh SE 9.8 mph15.8 kmh 29.92 in1013.2 mb 0.00 in0.0 mm 0.00 in/hr0.0 mm/hr 0.04 in1.0 mm
04:10 AM 71.4°F21.9°C 70.0°F21.1°C 95% 3.8 mph SE6.1 kmh SE 9.8 mph15.8 kmh 29.92 in1013.2 mb 0.00 in0.0 mm 0.00 in/hr0.0 mm/hr 0.04 in1.0 mm
04:15 AM 71.2°F21.8°C 69.8°F21.0°C 95% 3.8 mph SE6.1 kmh SE 9.2 mph14.8 kmh 29.92 in1013.2 mb 0.00 in0.0 mm 0.00 in/hr0.0 mm/hr 0.04 in1.0 mm
04:20 AM 71.2°F21.8°C 69.8°F21.0°C 95% 4.5 mph SE7.2 kmh SE 6.9 mph11.1 kmh 29.92 in1013.2 mb 0.00 in0.0 mm 0.00 in/hr0.0 mm/hr 0.04 in1.0 mm
04:25 AM 71.2°F21.8°C 69.8°F21.0°C 95% 4.5 mph SE7.2 kmh SE 7.6 mph12.2 kmh 29.92 in1013.2 mb 0.00 in0.0 mm 0.00 in/hr0.0 mm/hr 0.04 in1.0 mm
04:35 AM 71.6°F22.0°C 69.8°F21.0°C 94% 3.8 mph SE6.1 kmh SE 7.6 mph12.2 kmh 29.92 in1013.2 mb 0.00 in0.0 mm 0.00 in/hr0.0 mm/hr 0.04 in1.0 mm
04:40 AM 71.4°F21.9°C 70.0°F21.1°C 95% 3.8 mph ESE6.1 kmh ESE 7.6 mph12.2 kmh 29.92 in1013.2 mb 0.00 in0.0 mm 0.00 in/hr0.0 mm/hr 0.04 in1.0 mm
04:45 AM 71.2°F21.8°C 69.8°F21.0°C 95% 3.1 mph SE5.0 kmh SE 6.0 mph9.7 kmh 29.92 in1013.2 mb 0.00 in0.0 mm 0.00 in/hr0.0 mm/hr 0.04 in1.0 mm
04:50 AM 71.2°F21.8°C 69.8°F21.0°C 95% 3.8 mph S6.1 kmh S 6.0 mph9.7 kmh 29.92 in1013.2 mb 0.00 in0.0 mm 0.00 in/hr0.0 mm/hr 0.04 in1.0 mm
04:55 AM 71.2°F21.8°C 69.8°F21.0°C 95% 3.8 mph SE6.1 kmh SE 6.0 mph9.7 kmh 29.92 in1013.2 mb 0.00 in0.0 mm 0.00 in/hr0.0 mm/hr 0.04 in1.0 mm
05:00 AM 71.4°F21.9°C 70.0°F21.1°C 95% 4.5 mph SE7.2 kmh SE 7.6 mph12.2 kmh 29.92 in1013.2 mb 0.00 in0.0 mm 0.00 in/hr0.0 mm/hr 0.04 in1.0 mm
05:05 AM 71.4°F21.9°C 70.0°F21.1°C 95% 4.5 mph SE7.2 kmh SE 7.6 mph12.2 kmh 29.92 in1013.2 mb 0.00 in0.0 mm 0.00 in/hr0.0 mm/hr 0.04 in1.0 mm
05:10 AM 71.2°F21.8°C 69.8°F21.0°C 95% 3.1 mph SE5.0 kmh SE 6.9 mph11.1 kmh 29.92 in1013.2 mb 0.00 in0.0 mm 0.00 in/hr0.0 mm/hr 0.04 in1.0 mm
05:15 AM 71.4°F21.9°C 70.0°F21.1°C 95% 3.8 mph SE6.1 kmh SE 7.6 mph12.2 kmh 29.92 in1013.2 mb 0.00 in0.0 mm 0.00 in/hr0.0 mm/hr 0.04 in1.0 mm
05:20 AM 71.2°F21.8°C 69.8°F21.0°C 95% 3.1 mph SE5.0 kmh SE 7.6 mph12.2 kmh 29.92 in1013.2 mb 0.00 in0.0 mm 0.00 in/hr0.0 mm/hr 0.04 in1.0 mm
05:25 AM 71.2°F21.8°C 69.8°F21.0°C 95% 2.2 mph SE3.5 kmh SE 6.0 mph9.7 kmh 29.92 in1013.2 mb 0.00 in0.0 mm 0.00 in/hr0.0 mm/hr 0.04 in1.0 mm
05:30 AM 71.2°F21.8°C 69.8°F21.0°C 95% 4.5 mph SE7.2 kmh SE 6.0 mph9.7 kmh 29.92 in1013.2 mb 0.00 in0.0 mm 0.00 in/hr0.0 mm/hr 0.04 in1.0 mm
05:35 AM 71.2°F21.8°C 69.8°F21.0°C 95% 3.8 mph SE6.1 kmh SE 7.6 mph12.2 kmh 29.92 in1013.2 mb 0.00 in0.0 mm 0.00 in/hr0.0 mm/hr 0.04 in1.0 mm
05:40 AM 71.2°F21.8°C 69.8°F21.0°C 95% 4.5 mph SE7.2 kmh SE 7.6 mph12.2 kmh 29.92 in1013.2 mb 0.00 in0.0 mm 0.00 in/hr0.0 mm/hr 0.04 in1.0 mm
05:45 AM 71.2°F21.8°C 69.8°F21.0°C 95% 3.8 mph SE6.1 kmh SE 6.9 mph11.1 kmh 29.92 in1013.2 mb 0.00 in0.0 mm 0.00 in/hr0.0 mm/hr 0.04 in1.0 mm
05:50 AM 71.2°F21.8°C 69.8°F21.0°C 95% 3.8 mph SE6.1 kmh SE 8.3 mph13.4 kmh 29.92 in1013.2 mb 0.00 in0.0 mm 0.00 in/hr0.0 mm/hr 0.04 in1.0 mm
05:55 AM 71.2°F21.8°C 69.8°F21.0°C 95% 5.4 mph SE8.7 kmh SE 9.8 mph15.8 kmh 29.92 in1013.2 mb 0.00 in0.0 mm 0.00 in/hr0.0 mm/hr 0.04 in1.0 mm
06:00 AM 71.2°F21.8°C 69.8°F21.0°C 95% 7.6 mph SE12.2 kmh SE 11.4 mph18.3 kmh 29.92 in1013.2 mb 0.00 in0.0 mm 0.00 in/hr0.0 mm/hr 0.04 in1.0 mm
06:05 AM 71.2°F21.8°C 70.1°F21.2°C 96% 5.4 mph SE8.7 kmh SE 11.4 mph18.3 kmh 29.92 in1013.2 mb 0.00 in0.0 mm 0.00 in/hr0.0 mm/hr 0.04 in1.0 mm
06:10 AM 71.6°F22.0°C 69.8°F21.0°C 94% 4.5 mph SE7.2 kmh SE 9.8 mph15.8 kmh 29.92 in1013.2 mb 0.00 in0.0 mm 0.00 in/hr0.0 mm/hr 0.04 in1.0 mm
06:15 AM 71.6°F22.0°C 70.1°F21.2°C 95% 6.0 mph SE9.7 kmh SE 9.2 mph14.8 kmh 29.92 in1013.2 mb 0.00 in0.0 mm 0.00 in/hr0.0 mm/hr 0.04 in1.0 mm
06:20 AM 71.6°F22.0°C 70.1°F21.2°C 95% 4.5 mph SE7.2 kmh SE 9.2 mph14.8 kmh 29.92 in1013.2 mb 0.00 in0.0 mm 0.00 in/hr0.0 mm/hr 0.04 in1.0 mm
06:25 AM 71.8°F22.1°C 70.0°F21.1°C 94% 3.1 mph SE5.0 kmh SE 9.2 mph14.8 kmh 29.92 in1013.2 mb 0.00 in0.0 mm 0.00 in/hr0.0 mm/hr 0.04 in1.0 mm
06:30 AM 71.8°F22.1°C 70.0°F21.1°C 94% 3.8 mph SSE6.1 kmh SSE 9.2 mph14.8 kmh 29.92 in1013.2 mb 0.00 in0.0 mm 0.00 in/hr0.0 mm/hr 0.04 in1.0 mm
06:35 AM 71.6°F22.0°C 70.1°F21.2°C 95% 3.1 mph SE5.0 kmh SE 6.9 mph11.1 kmh 29.92 in1013.2 mb 0.00 in0.0 mm 0.00 in/hr0.0 mm/hr 0.04 in1.0 mm
06:40 AM 71.6°F22.0°C 70.1°F21.2°C 95% 6.0 mph SE9.7 kmh SE 7.6 mph12.2 kmh 29.92 in1013.2 mb 0.00 in0.0 mm 0.00 in/hr0.0 mm/hr 0.04 in1.0 mm
06:45 AM 71.8°F22.1°C 70.0°F21.1°C 94% 2.2 mph SE3.5 kmh SE 9.2 mph14.8 kmh 29.92 in1013.2 mb 0.00 in0.0 mm 0.00 in/hr0.0 mm/hr 0.04 in1.0 mm
06:50 AM 71.6°F22.0°C 70.1°F21.2°C 95% 3.8 mph SE6.1 kmh SE 9.2 mph14.8 kmh 29.92 in1013.2 mb 0.00 in0.0 mm 0.00 in/hr0.0 mm/hr 0.04 in1.0 mm
06:55 AM 71.8°F22.1°C 70.0°F21.1°C 94% 3.1 mph SE5.0 kmh SE 6.9 mph11.1 kmh 29.92 in1013.2 mb 0.00 in0.0 mm 0.00 in/hr0.0 mm/hr 0.04 in1.0 mm
07:00 AM 72.0°F22.2°C 70.2°F21.2°C 94% 3.8 mph SSE6.1 kmh SSE 6.0 mph9.7 kmh 29.92 in1013.2 mb 0.00 in0.0 mm 0.00 in/hr0.0 mm/hr 0.04 in1.0 mm
07:05 AM 72.0°F22.2°C 70.2°F21.2°C 94% 3.8 mph SE6.1 kmh SE 5.4 mph8.7 kmh 29.92 in1013.2 mb 0.00 in0.0 mm 0.00 in/hr0.0 mm/hr 0.04 in1.0 mm
07:10 AM 72.0°F22.2°C 70.5°F21.4°C 95% 3.8 mph SE6.1 kmh SE 6.9 mph11.1 kmh 29.92 in1013.2 mb 0.00 in0.0 mm 0.00 in/hr0.0 mm/hr 0.04 in1.0 mm
07:15 AM 72.0°F22.2°C 70.5°F21.4°C 95% 5.4 mph SE8.7 kmh SE 9.8 mph15.8 kmh 29.92 in1013.2 mb 0.00 in0.0 mm 0.00 in/hr0.0 mm/hr 0.04 in1.0 mm
07:20 AM 72.1°F22.3°C 70.7°F21.5°C 95% 6.9 mph SE11.1 kmh SE 12.1 mph19.5 kmh 29.92 in1013.2 mb 0.00 in0.0 mm 0.00 in/hr0.0 mm/hr 0.04 in1.0 mm
07:25 AM 72.1°F22.3°C 70.7°F21.5°C 95% 6.9 mph SE11.1 kmh SE 12.1 mph19.5 kmh 29.92 in1013.2 mb 0.00 in0.0 mm 0.00 in/hr0.0 mm/hr 0.04 in1.0 mm
07:30 AM 72.1°F22.3°C 70.7°F21.5°C 95% 6.0 mph SSE9.7 kmh SSE 11.4 mph18.3 kmh 29.92 in1013.2 mb 0.00 in0.0 mm 0.00 in/hr0.0 mm/hr 0.04 in1.0 mm
07:35 AM 72.3°F22.4°C 70.8°F21.6°C 95% 3.8 mph SE6.1 kmh SE 9.8 mph15.8 kmh 29.92 in1013.2 mb 0.00 in0.0 mm 0.00 in/hr0.0 mm/hr 0.04 in1.0 mm
07:40 AM 72.5°F22.5°C 71.0°F21.7°C 95% 5.4 mph SE8.7 kmh SE 8.3 mph13.4 kmh 29.92 in1013.2 mb 0.00 in0.0 mm 0.00 in/hr0.0 mm/hr 0.04 in1.0 mm
07:45 AM 72.5°F22.5°C 71.0°F21.7°C 95% 6.0 mph SE9.7 kmh SE 9.8 mph15.8 kmh 29.92 in1013.2 mb 0.00 in0.0 mm 0.00 in/hr0.0 mm/hr 0.04 in1.0 mm
07:50 AM 72.5°F22.5°C 71.0°F21.7°C 95% 6.9 mph SSE11.1 kmh SSE 11.4 mph18.3 kmh 29.92 in1013.2 mb 0.00 in0.0 mm 0.00 in/hr0.0 mm/hr 0.04 in1.0 mm
07:55 AM 72.5°F22.5°C 71.0°F21.7°C 95% 6.9 mph SSE11.1 kmh SSE 11.4 mph18.3 kmh 29.92 in1013.2 mb 0.00 in0.0 mm 0.00 in/hr0.0 mm/hr 0.04 in1.0 mm
08:00 AM 72.5°F22.5°C 71.0°F21.7°C 95% 5.4 mph SSE8.7 kmh SSE 9.8 mph15.8 kmh 29.92 in1013.2 mb 0.00 in0.0 mm 0.00 in/hr0.0 mm/hr 0.04 in1.0 mm
08:05 AM 72.7°F22.6°C 71.2°F21.8°C 95% 4.5 mph SSE7.2 kmh SSE 9.8 mph15.8 kmh 29.92 in1013.2 mb 0.00 in0.0 mm 0.00 in/hr0.0 mm/hr 0.04 in1.0 mm
08:10 AM 72.7°F22.6°C 71.2°F21.8°C 95% 4.5 mph SSE7.2 kmh SSE 8.3 mph13.4 kmh 29.92 in1013.2 mb 0.00 in0.0 mm 0.00 in/hr0.0 mm/hr 0.04 in1.0 mm
08:15 AM 72.9°F22.7°C 71.4°F21.9°C 95% 3.8 mph SSE6.1 kmh SSE 9.2 mph14.8 kmh 29.92 in1013.2 mb 0.00 in0.0 mm 0.00 in/hr0.0 mm/hr 0.04 in1.0 mm
08:20 AM 73.0°F22.8°C 71.6°F22.0°C 95% 6.9 mph SSE11.1 kmh SSE 9.2 mph14.8 kmh 29.92 in1013.2 mb 0.00 in0.0 mm 0.00 in/hr0.0 mm/hr 0.04 in1.0 mm
08:25 AM 73.2°F22.9°C 71.7°F22.1°C 95% 6.0 mph SSE9.7 kmh SSE 9.2 mph14.8 kmh 29.92 in1013.2 mb 0.00 in0.0 mm 0.00 in/hr0.0 mm/hr 0.04 in1.0 mm
08:30 AM 73.6°F23.1°C 72.1°F22.3°C 95% 4.5 mph SSE7.2 kmh SSE 9.2 mph14.8 kmh 29.92 in1013.2 mb 0.00 in0.0 mm 0.00 in/hr0.0 mm/hr 0.04 in1.0 mm
08:35 AM 73.6°F23.1°C 72.1°F22.3°C 95% 6.0 mph SSE9.7 kmh SSE 9.2 mph14.8 kmh 29.92 in1013.2 mb 0.00 in0.0 mm 0.00 in/hr0.0 mm/hr 0.04 in1.0 mm
08:40 AM 73.8°F23.2°C 72.3°F22.4°C 95% 5.4 mph SSE8.7 kmh SSE 10.7 mph17.2 kmh 29.92 in1013.2 mb 0.00 in0.0 mm 0.00 in/hr0.0 mm/hr 0.04 in1.0 mm
08:45 AM 73.9°F23.3°C 72.5°F22.5°C 95% 3.8 mph SSE6.1 kmh SSE 11.4 mph18.3 kmh 29.92 in1013.2 mb 0.00 in0.0 mm 0.00 in/hr0.0 mm/hr 0.04 in1.0 mm
08:50 AM 74.1°F23.4°C 72.3°F22.4°C 94% 4.5 mph SSE7.2 kmh SSE 11.4 mph18.3 kmh 29.92 in1013.2 mb 0.00 in0.0 mm 0.00 in/hr0.0 mm/hr 0.04 in1.0 mm
08:55 AM 74.1°F23.4°C 72.3°F22.4°C 94% 3.8 mph SSE6.1 kmh SSE 11.4 mph18.3 kmh 29.92 in1013.2 mb 0.00 in0.0 mm 0.00 in/hr0.0 mm/hr 0.04 in1.0 mm
09:00 AM 74.3°F23.5°C 72.5°F22.5°C 94% 6.9 mph S11.1 kmh S 11.4 mph18.3 kmh 29.92 in1013.2 mb 0.00 in0.0 mm 0.00 in/hr0.0 mm/hr 0.04 in1.0 mm
09:05 AM 74.3°F23.5°C 72.5°F22.5°C 94% 6.9 mph S11.1 kmh S 9.2 mph14.8 kmh 29.92 in1013.2 mb 0.00 in0.0 mm 0.00 in/hr0.0 mm/hr 0.04 in1.0 mm
09:10 AM 74.7°F23.7°C 72.5°F22.5°C 93% 8.3 mph S13.4 kmh S 10.7 mph17.2 kmh 29.92 in1013.2 mb 0.00 in0.0 mm 0.00 in/hr0.0 mm/hr 0.04 in1.0 mm
09:15 AM 75.0°F23.9°C 72.9°F22.7°C 93% 6.0 mph S9.7 kmh S 13.6 mph21.9 kmh 29.92 in1013.2 mb 0.00 in0.0 mm 0.00 in/hr0.0 mm/hr 0.04 in1.0 mm
09:20 AM 75.2°F24.0°C 72.4°F22.4°C 91% 6.9 mph SSE11.1 kmh SSE 14.5 mph23.3 kmh 29.92 in1013.2 mb 0.00 in0.0 mm 0.00 in/hr0.0 mm/hr 0.04 in1.0 mm
09:25 AM 75.6°F24.2°C 72.8°F22.7°C 91% 9.8 mph SSE15.8 kmh SSE 14.5 mph23.3 kmh 29.92 in1013.2 mb 0.00 in0.0 mm 0.00 in/hr0.0 mm/hr 0.04 in1.0 mm
09:30 AM 75.6°F24.2°C 72.8°F22.7°C 91% 8.3 mph SSE13.4 kmh SSE 15.9 mph25.6 kmh 29.92 in1013.2 mb 0.00 in0.0 mm 0.00 in/hr0.0 mm/hr 0.04 in1.0 mm
09:35 AM 75.9°F24.4°C 72.8°F22.7°C 90% 7.6 mph S12.2 kmh S 15.9 mph25.6 kmh 29.92 in1013.2 mb 0.00 in0.0 mm 0.00 in/hr0.0 mm/hr 0.04 in1.0 mm
09:40 AM 75.9°F24.4°C 72.8°F22.7°C 90% 8.3 mph S13.4 kmh S 15.2 mph24.5 kmh 29.92 in1013.2 mb 0.00 in0.0 mm 0.00 in/hr0.0 mm/hr 0.04 in1.0 mm
09:45 AM 76.5°F24.7°C 73.0°F22.8°C 89% 7.6 mph SSE12.2 kmh SSE 14.5 mph23.3 kmh 29.92 in1013.2 mb 0.00 in0.0 mm 0.00 in/hr0.0 mm/hr 0.04 in1.0 mm
09:50 AM 76.5°F24.7°C 72.7°F22.6°C 88% 9.2 mph SSE14.8 kmh SSE 17.4 mph28.0 kmh 29.92 in1013.2 mb 0.01 in0.3 mm 0.12 in/hr3.0 mm/hr 0.05 in1.3 mm
09:55 AM 76.6°F24.8°C 72.9°F22.7°C 88% 8.3 mph S13.4 kmh S 17.4 mph28.0 kmh 29.92 in1013.2 mb 0.01 in0.3 mm 0.00 in/hr0.0 mm/hr 0.05 in1.3 mm
10:00 AM 76.8°F24.9°C 72.7°F22.6°C 87% 9.2 mph S14.8 kmh S 13.0 mph20.9 kmh 29.92 in1013.2 mb 0.01 in0.3 mm 0.00 in/hr0.0 mm/hr 0.05 in1.3 mm
10:05 AM 77.0°F25.0°C 72.5°F22.5°C 86% 6.0 mph S9.7 kmh S 13.0 mph20.9 kmh 29.92 in1013.2 mb 0.01 in0.3 mm 0.00 in/hr0.0 mm/hr 0.05 in1.3 mm
10:10 AM 77.5°F25.3°C 73.1°F22.8°C 86% 8.3 mph S13.4 kmh S 14.5 mph23.3 kmh 29.92 in1013.2 mb 0.01 in0.3 mm 0.00 in/hr0.0 mm/hr 0.05 in1.3 mm
10:15 AM 77.4°F25.2°C 72.5°F22.5°C 85% 7.6 mph S12.2 kmh S 14.5 mph23.3 kmh 29.92 in1013.2 mb 0.01 in0.3 mm 0.00 in/hr0.0 mm/hr 0.05 in1.3 mm
10:20 AM 77.7°F25.4°C 72.9°F22.7°C 85% 9.2 mph S14.8 kmh S 13.6 mph21.9 kmh 29.92 in1013.2 mb 0.01 in0.3 mm 0.00 in/hr0.0 mm/hr 0.05 in1.3 mm
10:25 AM 77.9°F25.5°C 72.7°F22.6°C 84% 12.1 mph SSE19.5 kmh SSE 14.5 mph23.3 kmh 29.92 in1013.2 mb 0.01 in0.3 mm 0.00 in/hr0.0 mm/hr 0.05 in1.3 mm
10:30 AM 78.1°F25.6°C 72.5°F22.5°C 83% 13.6 mph S21.9 kmh S 16.8 mph27.0 kmh 29.92 in1013.2 mb 0.01 in0.3 mm 0.00 in/hr0.0 mm/hr 0.05 in1.3 mm
10:35 AM 78.3°F25.7°C 72.7°F22.6°C 83% 9.8 mph S15.8 kmh S 16.8 mph27.0 kmh 29.92 in1013.2 mb 0.01 in0.3 mm 0.00 in/hr0.0 mm/hr 0.05 in1.3 mm
10:40 AM 78.4°F25.8°C 72.9°F22.7°C 83% 7.6 mph SSE12.2 kmh SSE 15.9 mph25.6 kmh 29.92 in1013.2 mb 0.01 in0.3 mm 0.00 in/hr0.0 mm/hr 0.05 in1.3 mm
10:45 AM 78.8°F26.0°C 72.5°F22.5°C 81% 9.2 mph SSE14.8 kmh SSE 15.9 mph25.6 kmh 29.92 in1013.2 mb 0.01 in0.3 mm 0.00 in/hr0.0 mm/hr 0.05 in1.3 mm
10:50 AM 79.2°F26.2°C 72.5°F22.5°C 80% 9.2 mph S14.8 kmh S 15.2 mph24.5 kmh 29.92 in1013.2 mb 0.00 in0.0 mm 0.00 in/hr0.0 mm/hr 0.05 in1.3 mm
10:55 AM 79.5°F26.4°C 72.5°F22.5°C 79% 13.0 mph S20.9 kmh S 15.9 mph25.6 kmh 29.92 in1013.2 mb 0.00 in0.0 mm 0.00 in/hr0.0 mm/hr 0.05 in1.3 mm
11:00 AM 80.2°F26.8°C 72.8°F22.7°C 78% 13.6 mph S21.9 kmh S 18.3 mph29.5 kmh 29.92 in1013.2 mb 0.00 in0.0 mm 0.00 in/hr0.0 mm/hr 0.05 in1.3 mm
11:05 AM 81.0°F27.2°C 72.3°F22.4°C 75% 12.1 mph S19.5 kmh S 18.3 mph29.5 kmh 29.92 in1013.2 mb 0.00 in0.0 mm 0.00 in/hr0.0 mm/hr 0.05 in1.3 mm
11:10 AM 81.3°F27.4°C 72.3°F22.4°C 74% 14.5 mph S23.3 kmh S 20.6 mph33.2 kmh 29.92 in1013.2 mb 0.00 in0.0 mm 0.00 in/hr0.0 mm/hr 0.05 in1.3 mm
11:15 AM 81.0°F27.2°C 71.5°F21.9°C 73% 13.6 mph S21.9 kmh S 20.6 mph33.2 kmh 29.92 in1013.2 mb 0.00 in0.0 mm 0.00 in/hr0.0 mm/hr 0.05 in1.3 mm
11:20 AM 81.3°F27.4°C 71.5°F21.9°C 72% 13.6 mph S21.9 kmh S 20.6 mph33.2 kmh 29.92 in1013.2 mb 0.00 in0.0 mm 0.00 in/hr0.0 mm/hr 0.05 in1.3 mm
11:25 AM 81.3°F27.4°C 70.7°F21.5°C 70% 11.4 mph S18.3 kmh S 23.5 mph37.8 kmh 29.92 in1013.2 mb 0.00 in0.0 mm 0.00 in/hr0.0 mm/hr 0.05 in1.3 mm
11:30 AM 81.7°F27.6°C 71.4°F21.9°C 71% 9.2 mph S14.8 kmh S 23.5 mph37.8 kmh 29.92 in1013.2 mb 0.00 in0.0 mm 0.00 in/hr0.0 mm/hr 0.05 in1.3 mm
11:35 AM 81.9°F27.7°C 70.7°F21.5°C 69% 12.1 mph S19.5 kmh S 19.7 mph31.7 kmh 29.92 in1013.2 mb 0.00 in0.0 mm 0.00 in/hr0.0 mm/hr 0.05 in1.3 mm
11:40 AM 82.0°F27.8°C 71.3°F21.8°C 70% 13.6 mph S21.9 kmh S 22.8 mph36.7 kmh 29.92 in1013.2 mb 0.00 in0.0 mm 0.00 in/hr0.0 mm/hr 0.05 in1.3 mm
11:45 AM 81.9°F27.7°C 70.7°F21.5°C 69% 13.6 mph S21.9 kmh S 22.8 mph36.7 kmh 29.92 in1013.2 mb 0.00 in0.0 mm 0.00 in/hr0.0 mm/hr 0.05 in1.3 mm
11:50 AM 82.0°F27.8°C 71.3°F21.8°C 70% 13.0 mph S20.9 kmh S 21.3 mph34.3 kmh 29.92 in1013.2 mb 0.00 in0.0 mm 0.00 in/hr0.0 mm/hr 0.05 in1.3 mm
11:55 AM 82.0°F27.8°C 71.3°F21.8°C 70% 7.6 mph S12.2 kmh S 19.7 mph31.7 kmh 29.92 in1013.2 mb 0.00 in0.0 mm 0.00 in/hr0.0 mm/hr 0.05 in1.3 mm
12:00 PM 82.8°F28.2°C 71.6°F22.0°C 69% 9.8 mph SSW15.8 kmh SSW 18.3 mph29.5 kmh 29.92 in1013.2 mb 0.00 in0.0 mm 0.00 in/hr0.0 mm/hr 0.05 in1.3 mm
12:05 PM 82.9°F28.3°C 71.3°F21.8°C 68% 12.1 mph S19.5 kmh S 19.0 mph30.6 kmh 29.92 in1013.2 mb 0.00 in0.0 mm 0.00 in/hr0.0 mm/hr 0.05 in1.3 mm
12:10 PM 83.1°F28.4°C 71.5°F21.9°C 68% 12.1 mph S19.5 kmh S 19.0 mph30.6 kmh 29.92 in1013.2 mb 0.00 in0.0 mm 0.00 in/hr0.0 mm/hr 0.05 in1.3 mm
12:15 PM 82.9°F28.3°C 70.9°F21.6°C 67% 9.2 mph S14.8 kmh S 17.4 mph28.0 kmh 29.92 in1013.2 mb 0.00 in0.0 mm 0.00 in/hr0.0 mm/hr 0.05 in1.3 mm
12:20 PM 82.8°F28.2°C 71.2°F21.8°C 68% 9.8 mph S15.8 kmh S 18.3 mph29.5 kmh 29.92 in1013.2 mb 0.00 in0.0 mm 0.00 in/hr0.0 mm/hr 0.05 in1.3 mm
12:25 PM 82.4°F28.0°C 71.3°F21.8°C 69% 7.6 mph S12.2 kmh S 18.3 mph29.5 kmh 29.92 in1013.2 mb 0.00 in0.0 mm 0.00 in/hr0.0 mm/hr 0.05 in1.3 mm
12:30 PM 82.4°F28.0°C 71.3°F21.8°C 69% 10.7 mph S17.2 kmh S 15.9 mph25.6 kmh 29.92 in1013.2 mb 0.00 in0.0 mm 0.00 in/hr0.0 mm/hr 0.05 in1.3 mm
12:35 PM 82.0°F27.8°C 70.9°F21.6°C 69% 7.6 mph S12.2 kmh S 15.9 mph25.6 kmh 29.92 in1013.2 mb 0.00 in0.0 mm 0.00 in/hr0.0 mm/hr 0.05 in1.3 mm
12:40 PM 82.9°F28.3°C 71.3°F21.8°C 68% 12.1 mph S19.5 kmh S 17.4 mph28.0 kmh 29.92 in1013.2 mb 0.00 in0.0 mm 0.00 in/hr0.0 mm/hr 0.05 in1.3 mm
12:45 PM 83.1°F28.4°C 71.1°F21.7°C 67% 10.7 mph S17.2 kmh S 17.4 mph28.0 kmh 29.92 in1013.2 mb 0.00 in0.0 mm 0.00 in/hr0.0 mm/hr 0.05 in1.3 mm
12:50 PM 83.1°F28.4°C 72.0°F22.2°C 69% 11.4 mph S18.3 kmh S 16.8 mph27.0 kmh 29.92 in1013.2 mb 0.00 in0.0 mm 0.00 in/hr0.0 mm/hr 0.05 in1.3 mm
12:55 PM 83.3°F28.5°C 71.3°F21.8°C 67% 10.7 mph S17.2 kmh S 16.8 mph27.0 kmh 29.92 in1013.2 mb 0.00 in0.0 mm 0.00 in/hr0.0 mm/hr 0.05 in1.3 mm
01:00 PM 83.7°F28.7°C 71.6°F22.0°C 67% 11.4 mph SSE18.3 kmh SSE 15.9 mph25.6 kmh 29.92 in1013.2 mb 0.00 in0.0 mm 0.00 in/hr0.0 mm/hr 0.05 in1.3 mm
01:05 PM 82.9°F28.3°C 70.9°F21.6°C 67% 9.2 mph SSE14.8 kmh SSE 15.9 mph25.6 kmh 29.92 in1013.2 mb 0.00 in0.0 mm 0.00 in/hr0.0 mm/hr 0.05 in1.3 mm
01:10 PM 83.5°F28.6°C 71.4°F21.9°C 67% 9.8 mph S15.8 kmh S 15.9 mph25.6 kmh 29.92 in1013.2 mb 0.00 in0.0 mm 0.00 in/hr0.0 mm/hr 0.05 in1.3 mm
01:15 PM 83.1°F28.4°C 71.1°F21.7°C 67% 9.2 mph S14.8 kmh S 15.9 mph25.6 kmh 29.92 in1013.2 mb 0.00 in0.0 mm 0.00 in/hr0.0 mm/hr 0.05 in1.3 mm
01:20 PM 83.1°F28.4°C 71.1°F21.7°C 67% 9.2 mph S14.8 kmh S 15.9 mph25.6 kmh 29.92 in1013.2 mb 0.00 in0.0 mm 0.00 in/hr0.0 mm/hr 0.05 in1.3 mm
01:25 PM 83.1°F28.4°C 71.1°F21.7°C 67% 12.1 mph S19.5 kmh S 17.4 mph28.0 kmh 29.92 in1013.2 mb 0.00 in0.0 mm 0.00 in/hr0.0 mm/hr 0.05 in1.3 mm
01:30 PM 83.5°F28.6°C 71.0°F21.7°C 66% 9.8 mph SSE15.8 kmh SSE 19.7 mph31.7 kmh 29.92 in1013.2 mb 0.00 in0.0 mm 0.00 in/hr0.0 mm/hr 0.05 in1.3 mm
01:35 PM 84.0°F28.9°C 71.5°F21.9°C 66% 7.6 mph S12.2 kmh S 19.7 mph31.7 kmh 29.92 in1013.2 mb 0.00 in0.0 mm 0.00 in/hr0.0 mm/hr 0.05 in1.3 mm
01:40 PM 84.2°F29.0°C 71.7°F22.1°C 66% 8.3 mph S13.4 kmh S 18.3 mph29.5 kmh 29.92 in1013.2 mb 0.00 in0.0 mm 0.00 in/hr0.0 mm/hr 0.05 in1.3 mm
01:45 PM 84.7°F29.3°C 70.8°F21.6°C 63% 11.4 mph S18.3 kmh S 16.8 mph27.0 kmh 29.92 in1013.2 mb 0.00 in0.0 mm 0.00 in/hr0.0 mm/hr 0.05 in1.3 mm
01:50 PM 84.6°F29.2°C 71.6°F22.0°C 65% 13.0 mph S20.9 kmh S 16.8 mph27.0 kmh 29.92 in1013.2 mb 0.00 in0.0 mm 0.00 in/hr0.0 mm/hr 0.05 in1.3 mm
01:55 PM 86.0°F30.0°C 71.5°F21.9°C 62% 6.9 mph S11.1 kmh S 15.9 mph25.6 kmh 29.92 in1013.2 mb 0.00 in0.0 mm 0.00 in/hr0.0 mm/hr 0.05 in1.3 mm
02:00 PM 86.4°F30.2°C 71.4°F21.9°C 61% 9.8 mph S15.8 kmh S 15.9 mph25.6 kmh 29.92 in1013.2 mb 0.00 in0.0 mm 0.00 in/hr0.0 mm/hr 0.05 in1.3 mm
02:05 PM 85.8°F29.9°C 71.8°F22.1°C 63% 10.7 mph SSE17.2 kmh SSE 15.2 mph24.5 kmh 29.92 in1013.2 mb 0.00 in0.0 mm 0.00 in/hr0.0 mm/hr 0.05 in1.3 mm
02:10 PM 85.6°F29.8°C 71.7°F22.1°C 63% 9.2 mph SSE14.8 kmh SSE 17.4 mph28.0 kmh 29.92 in1013.2 mb 0.00 in0.0 mm 0.00 in/hr0.0 mm/hr 0.05 in1.3 mm
02:15 PM 84.7°F29.3°C 70.8°F21.6°C 63% 11.4 mph S18.3 kmh S 17.4 mph28.0 kmh 29.92 in1013.2 mb 0.00 in0.0 mm 0.00 in/hr0.0 mm/hr 0.05 in1.3 mm
02:20 PM 84.6°F29.2°C 71.1°F21.7°C 64% 9.2 mph S14.8 kmh S 16.8 mph27.0 kmh 29.92 in1013.2 mb 0.00 in0.0 mm 0.00 in/hr0.0 mm/hr 0.05 in1.3 mm
02:25 PM 84.4°F29.1°C 70.9°F21.6°C 64% 8.3 mph S13.4 kmh S 16.8 mph27.0 kmh 29.92 in1013.2 mb 0.00 in0.0 mm 0.00 in/hr0.0 mm/hr 0.05 in1.3 mm
02:30 PM 84.9°F29.4°C 71.4°F21.9°C 64% 12.1 mph S19.5 kmh S 16.8 mph27.0 kmh 29.92 in1013.2 mb 0.00 in0.0 mm 0.00 in/hr0.0 mm/hr 0.05 in1.3 mm
02:35 PM 85.1°F29.5°C 71.1°F21.7°C 63% 9.2 mph S14.8 kmh S 17.4 mph28.0 kmh 29.92 in1013.2 mb 0.00 in0.0 mm 0.00 in/hr0.0 mm/hr 0.05 in1.3 mm
02:40 PM 84.9°F29.4°C 71.0°F21.7°C 63% 13.0 mph S20.9 kmh S 17.4 mph28.0 kmh 29.92 in1013.2 mb 0.00 in0.0 mm 0.00 in/hr0.0 mm/hr 0.05 in1.3 mm
02:45 PM 83.8°F28.8°C 70.9°F21.6°C 65% 10.7 mph S17.2 kmh S 16.8 mph27.0 kmh 29.92 in1013.2 mb 0.00 in0.0 mm 0.00 in/hr0.0 mm/hr 0.05 in1.3 mm
02:50 PM 84.6°F29.2°C 71.6°F22.0°C 65% 6.0 mph S9.7 kmh S 16.8 mph27.0 kmh 29.92 in1013.2 mb 0.00 in0.0 mm 0.00 in/hr0.0 mm/hr 0.05 in1.3 mm
02:55 PM 85.1°F29.5°C 71.1°F21.7°C 63% 13.6 mph S21.9 kmh S 19.7 mph31.7 kmh 29.92 in1013.2 mb 0.00 in0.0 mm 0.00 in/hr0.0 mm/hr 0.05 in1.3 mm
03:00 PM 85.1°F29.5°C 71.6°F22.0°C 64% 9.8 mph S15.8 kmh S 19.7 mph31.7 kmh 29.92 in1013.2 mb 0.00 in0.0 mm 0.00 in/hr0.0 mm/hr 0.05 in1.3 mm
03:05 PM 84.4°F29.1°C 70.5°F21.4°C 63% 8.3 mph S13.4 kmh S 17.4 mph28.0 kmh 29.92 in1013.2 mb 0.00 in0.0 mm 0.00 in/hr0.0 mm/hr 0.05 in1.3 mm
03:10 PM 83.5°F28.6°C 70.5°F21.4°C 65% 10.7 mph S17.2 kmh S 18.3 mph29.5 kmh 29.92 in1013.2 mb 0.00 in0.0 mm 0.00 in/hr0.0 mm/hr 0.05 in1.3 mm
03:15 PM 83.8°F28.8°C 71.8°F22.1°C 67% 9.2 mph S14.8 kmh S 18.3 mph29.5 kmh 29.92 in1013.2 mb 0.00 in0.0 mm 0.00 in/hr0.0 mm/hr 0.05 in1.3 mm
03:20 PM 84.4°F29.1°C 71.4°F21.9°C 65% 6.9 mph S11.1 kmh S 13.6 mph21.9 kmh 29.92 in1013.2 mb 0.00 in0.0 mm 0.00 in/hr0.0 mm/hr 0.05 in1.3 mm
03:25 PM 84.7°F29.3°C 71.7°F22.1°C 65% 9.2 mph S14.8 kmh S 13.6 mph21.9 kmh 29.92 in1013.2 mb 0.00 in0.0 mm 0.00 in/hr0.0 mm/hr 0.05 in1.3 mm
03:30 PM 84.4°F29.1°C 71.4°F21.9°C 65% 9.2 mph S14.8 kmh S 13.0 mph20.9 kmh 29.92 in1013.2 mb 0.00 in0.0 mm 0.00 in/hr0.0 mm/hr 0.05 in1.3 mm
03:35 PM 84.6°F29.2°C 71.1°F21.7°C 64% 6.9 mph S11.1 kmh S 13.0 mph20.9 kmh 29.92 in1013.2 mb 0.00 in0.0 mm 0.00 in/hr0.0 mm/hr 0.05 in1.3 mm
03:40 PM 84.0°F28.9°C 71.5°F21.9°C 66% 7.6 mph S12.2 kmh S 13.0 mph20.9 kmh 29.92 in1013.2 mb 0.00 in0.0 mm 0.00 in/hr0.0 mm/hr 0.05 in1.3 mm
03:45 PM 83.8°F28.8°C 71.3°F21.8°C 66% 9.2 mph S14.8 kmh S 15.2 mph24.5 kmh 29.92 in1013.2 mb 0.00 in0.0 mm 0.00 in/hr0.0 mm/hr 0.05 in1.3 mm
03:50 PM 84.0°F28.9°C 71.9°F22.2°C 67% 9.2 mph S14.8 kmh S 15.2 mph24.5 kmh 29.92 in1013.2 mb 0.00 in0.0 mm 0.00 in/hr0.0 mm/hr 0.05 in1.3 mm
03:55 PM 84.2°F29.0°C 71.2°F21.8°C 65% 10.7 mph S17.2 kmh S 13.6 mph21.9 kmh 29.92 in1013.2 mb 0.00 in0.0 mm 0.00 in/hr0.0 mm/hr 0.05 in1.3 mm
04:00 PM 84.2°F29.0°C 71.2°F21.8°C 65% 9.2 mph S14.8 kmh S 14.5 mph23.3 kmh 29.92 in1013.2 mb 0.00 in0.0 mm 0.00 in/hr0.0 mm/hr 0.05 in1.3 mm
04:05 PM 84.2°F29.0°C 71.2°F21.8°C 65% 10.7 mph S17.2 kmh S 15.2 mph24.5 kmh 29.92 in1013.2 mb 0.00 in0.0 mm 0.00 in/hr0.0 mm/hr 0.05 in1.3 mm
04:10 PM 84.2°F29.0°C 71.2°F21.8°C 65% 9.8 mph S15.8 kmh S 15.2 mph24.5 kmh 29.92 in1013.2 mb 0.00 in0.0 mm 0.00 in/hr0.0 mm/hr 0.05 in1.3 mm
04:15 PM 83.5°F28.6°C 71.4°F21.9°C 67% 7.6 mph S12.2 kmh S 13.0 mph20.9 kmh 29.92 in1013.2 mb 0.00 in0.0 mm 0.00 in/hr0.0 mm/hr 0.05 in1.3 mm
04:20 PM 83.1°F28.4°C 71.5°F21.9°C 68% 3.8 mph S6.1 kmh S 13.0 mph20.9 kmh 29.92 in1013.2 mb 0.00 in0.0 mm 0.00 in/hr0.0 mm/hr 0.05 in1.3 mm
04:25 PM 82.9°F28.3°C 71.3°F21.8°C 68% 6.0 mph S9.7 kmh S 13.0 mph20.9 kmh 29.92 in1013.2 mb 0.00 in0.0 mm 0.00 in/hr0.0 mm/hr 0.05 in1.3 mm
04:30 PM 83.1°F28.4°C 72.0°F22.2°C 69% 4.5 mph S7.2 kmh S 10.7 mph17.2 kmh 29.92 in1013.2 mb 0.00 in0.0 mm 0.00 in/hr0.0 mm/hr 0.05 in1.3 mm
04:35 PM 82.6°F28.1°C 71.4°F21.9°C 69% 6.0 mph S9.7 kmh S 9.2 mph14.8 kmh 29.92 in1013.2 mb 0.00 in0.0 mm 0.00 in/hr0.0 mm/hr 0.05 in1.3 mm
04:40 PM 82.4°F28.0°C 71.3°F21.8°C 69% 5.4 mph S8.7 kmh S 9.2 mph14.8 kmh 29.92 in1013.2 mb 0.00 in0.0 mm 0.00 in/hr0.0 mm/hr 0.05 in1.3 mm
04:45 PM 82.0°F27.8°C 71.3°F21.8°C 70% 5.4 mph S8.7 kmh S 9.2 mph14.8 kmh 29.92 in1013.2 mb 0.00 in0.0 mm 0.00 in/hr0.0 mm/hr 0.05 in1.3 mm
04:50 PM 82.0°F27.8°C 71.3°F21.8°C 70% 3.8 mph S6.1 kmh S 9.2 mph14.8 kmh 29.92 in1013.2 mb 0.00 in0.0 mm 0.00 in/hr0.0 mm/hr 0.05 in1.3 mm
04:55 PM 81.9°F27.7°C 71.6°F22.0°C 71% 3.1 mph S5.0 kmh S 9.2 mph14.8 kmh 29.92 in1013.2 mb 0.00 in0.0 mm 0.00 in/hr0.0 mm/hr 0.05 in1.3 mm
05:00 PM 81.9°F27.7°C 71.6°F22.0°C 71% 3.8 mph S6.1 kmh S 8.3 mph13.4 kmh 29.92 in1013.2 mb 0.00 in0.0 mm 0.00 in/hr0.0 mm/hr 0.05 in1.3 mm
05:05 PM 81.7°F27.6°C 71.4°F21.9°C 71% 3.8 mph S6.1 kmh S 8.3 mph13.4 kmh 29.92 in1013.2 mb 0.00 in0.0 mm 0.00 in/hr0.0 mm/hr 0.05 in1.3 mm
05:10 PM 81.3°F27.4°C 71.5°F21.9°C 72% 4.5 mph S7.2 kmh S 7.6 mph12.2 kmh 29.92 in1013.2 mb 0.00 in0.0 mm 0.00 in/hr0.0 mm/hr 0.05 in1.3 mm
05:15 PM 81.3°F27.4°C 71.5°F21.9°C 72% 3.8 mph S6.1 kmh S 6.9 mph11.1 kmh 29.92 in1013.2 mb 0.00 in0.0 mm 0.00 in/hr0.0 mm/hr 0.05 in1.3 mm
05:20 PM 81.3°F27.4°C 71.5°F21.9°C 72% 6.9 mph S11.1 kmh S 9.2 mph14.8 kmh 29.92 in1013.2 mb 0.00 in0.0 mm 0.00 in/hr0.0 mm/hr 0.05 in1.3 mm
05:25 PM 81.0°F27.2°C 71.1°F21.7°C 72% 8.3 mph S13.4 kmh S 10.7 mph17.2 kmh 29.92 in1013.2 mb 0.00 in0.0 mm 0.00 in/hr0.0 mm/hr 0.05 in1.3 mm
05:30 PM 81.1°F27.3°C 71.3°F21.8°C 72% 7.6 mph S12.2 kmh S 10.7 mph17.2 kmh 29.92 in1013.2 mb 0.00 in0.0 mm 0.00 in/hr0.0 mm/hr 0.05 in1.3 mm
05:35 PM 81.1°F27.3°C 71.3°F21.8°C 72% 7.6 mph S12.2 kmh S 10.7 mph17.2 kmh 29.92 in1013.2 mb 0.00 in0.0 mm 0.00 in/hr0.0 mm/hr 0.05 in1.3 mm
05:40 PM 80.6°F27.0°C 71.6°F22.0°C 74% 4.5 mph S7.2 kmh S 9.8 mph15.8 kmh 29.92 in1013.2 mb 0.00 in0.0 mm 0.00 in/hr0.0 mm/hr 0.05 in1.3 mm
05:45 PM 80.2°F26.8°C 71.6°F22.0°C 75% 5.4 mph S8.7 kmh S 9.8 mph15.8 kmh 29.92 in1013.2 mb 0.00 in0.0 mm 0.00 in/hr0.0 mm/hr 0.05 in1.3 mm
05:50 PM 79.9°F26.6°C 71.7°F22.1°C 76% 3.8 mph S6.1 kmh S 6.0 mph9.7 kmh 29.92 in1013.2 mb 0.00 in0.0 mm 0.00 in/hr0.0 mm/hr 0.05 in1.3 mm
05:55 PM 79.7°F26.5°C 71.9°F22.2°C 77% 4.5 mph SSE7.2 kmh SSE 9.2 mph14.8 kmh 29.92 in1013.2 mb 0.00 in0.0 mm 0.00 in/hr0.0 mm/hr 0.05 in1.3 mm
06:00 PM 79.7°F26.5°C 71.9°F22.2°C 77% 4.5 mph SSE7.2 kmh SSE 9.2 mph14.8 kmh 29.92 in1013.2 mb 0.00 in0.0 mm 0.00 in/hr0.0 mm/hr 0.05 in1.3 mm
06:05 PM 79.5°F26.4°C 72.1°F22.3°C 78% 3.8 mph SSE6.1 kmh SSE 6.9 mph11.1 kmh 29.92 in1013.2 mb 0.00 in0.0 mm 0.00 in/hr0.0 mm/hr 0.05 in1.3 mm
06:10 PM 79.3°F26.3°C 72.3°F22.4°C 79% 2.2 mph SSE3.5 kmh SSE 6.9 mph11.1 kmh 29.92 in1013.2 mb 0.00 in0.0 mm 0.00 in/hr0.0 mm/hr 0.05 in1.3 mm
06:15 PM 78.8°F26.0°C 71.8°F22.1°C 79% 1.6 mph SSE2.6 kmh SSE 5.4 mph8.7 kmh 29.92 in1013.2 mb 0.00 in0.0 mm 0.00 in/hr0.0 mm/hr 0.05 in1.3 mm
06:20 PM 78.8°F26.0°C 71.8°F22.1°C 79% 2.2 mph SE3.5 kmh SE 4.5 mph7.2 kmh 29.92 in1013.2 mb 0.00 in0.0 mm 0.00 in/hr0.0 mm/hr 0.05 in1.3 mm
06:25 PM 78.4°F25.8°C 72.2°F22.3°C 81% 0.7 mph SSE1.1 kmh SSE 4.5 mph7.2 kmh 29.92 in1013.2 mb 0.00 in0.0 mm 0.00 in/hr0.0 mm/hr 0.05 in1.3 mm
06:30 PM 78.4°F25.8°C 72.2°F22.3°C 81% Calm Calm 4.5 mph7.2 kmh 29.92 in1013.2 mb 0.00 in0.0 mm 0.00 in/hr0.0 mm/hr 0.05 in1.3 mm
06:35 PM 78.3°F25.7°C 72.0°F22.2°C 81% 1.6 mph SE2.6 kmh SE 3.1 mph5.0 kmh 29.92 in1013.2 mb 0.00 in0.0 mm 0.00 in/hr0.0 mm/hr 0.05 in1.3 mm
06:40 PM 78.1°F25.6°C 71.8°F22.1°C 81% 0.7 mph SE1.1 kmh SE 3.1 mph5.0 kmh 29.92 in1013.2 mb 0.00 in0.0 mm 0.00 in/hr0.0 mm/hr 0.05 in1.3 mm
06:45 PM 78.3°F25.7°C 72.4°F22.4°C 82% 1.6 mph SE2.6 kmh SE 3.8 mph6.1 kmh 29.92 in1013.2 mb 0.00 in0.0 mm 0.00 in/hr0.0 mm/hr 0.05 in1.3 mm
06:50 PM 78.1°F25.6°C 72.2°F22.3°C 82% 0.7 mph SE1.1 kmh SE 3.8 mph6.1 kmh 29.92 in1013.2 mb 0.00 in0.0 mm 0.00 in/hr0.0 mm/hr 0.05 in1.3 mm
06:55 PM 77.7°F25.4°C 71.8°F22.1°C 82% Calm Calm 3.1 mph5.0 kmh 29.92 in1013.2 mb 0.00 in0.0 mm 0.00 in/hr0.0 mm/hr 0.05 in1.3 mm
07:00 PM 77.9°F25.5°C 72.0°F22.2°C 82% 0.7 mph SE1.1 kmh SE 3.1 mph5.0 kmh 29.92 in1013.2 mb 0.00 in0.0 mm 0.00 in/hr0.0 mm/hr 0.05 in1.3 mm
07:05 PM 77.9°F25.5°C 72.0°F22.2°C 82% 0.7 mph SE1.1 kmh SE 3.1 mph5.0 kmh 29.92 in1013.2 mb 0.00 in0.0 mm 0.00 in/hr0.0 mm/hr 0.05 in1.3 mm
07:10 PM 77.4°F25.2°C 71.5°F21.9°C 82% Calm Calm 3.1 mph5.0 kmh 29.92 in1013.2 mb 0.00 in0.0 mm 0.00 in/hr0.0 mm/hr 0.05 in1.3 mm
07:15 PM 77.0°F25.0°C 71.5°F21.9°C 83% Calm Calm 3.1 mph5.0 kmh 29.92 in1013.2 mb 0.00 in0.0 mm 0.00 in/hr0.0 mm/hr 0.05 in1.3 mm
07:20 PM 77.0°F25.0°C 71.5°F21.9°C 83% Calm Calm -- 29.92 in1013.2 mb 0.00 in0.0 mm 0.00 in/hr0.0 mm/hr 0.05 in1.3 mm
07:25 PM 76.3°F24.6°C 71.1°F21.7°C 84% Calm Calm -- 29.92 in1013.2 mb 0.00 in0.0 mm 0.00 in/hr0.0 mm/hr 0.05 in1.3 mm
07:30 PM 76.5°F24.7°C 71.7°F22.1°C 85% Calm Calm -- 29.92 in1013.2 mb 0.00 in0.0 mm 0.00 in/hr0.0 mm/hr 0.05 in1.3 mm
07:35 PM 76.1°F24.5°C 71.3°F21.8°C 85% Calm Calm 0.7 mph1.1 kmh 29.92 in1013.2 mb 0.00 in0.0 mm 0.00 in/hr0.0 mm/hr 0.05 in1.3 mm
07:40 PM 75.7°F24.3°C 71.0°F21.7°C 85% Calm Calm 0.7 mph1.1 kmh 29.92 in1013.2 mb 0.00 in0.0 mm 0.00 in/hr0.0 mm/hr 0.05 in1.3 mm
07:45 PM 75.4°F24.1°C 70.9°F21.6°C 86% Calm Calm -- 29.92 in1013.2 mb 0.00 in0.0 mm 0.00 in/hr0.0 mm/hr 0.05 in1.3 mm
07:50 PM 75.6°F24.2°C 71.1°F21.7°C 86% Calm Calm -- 29.92 in1013.2 mb 0.00 in0.0 mm 0.00 in/hr0.0 mm/hr 0.05 in1.3 mm
07:55 PM 75.0°F23.9°C 71.3°F21.8°C 88% Calm Calm -- 29.92 in1013.2 mb 0.00 in0.0 mm 0.00 in/hr0.0 mm/hr 0.05 in1.3 mm
08:00 PM 74.8°F23.8°C 71.1°F21.7°C 88% Calm Calm -- 29.92 in1013.2 mb 0.00 in0.0 mm 0.00 in/hr0.0 mm/hr 0.05 in1.3 mm
08:05 PM 74.8°F23.8°C 71.4°F21.9°C 89% Calm Calm -- 29.92 in1013.2 mb 0.00 in0.0 mm 0.00 in/hr0.0 mm/hr 0.05 in1.3 mm
08:10 PM 74.8°F23.8°C 71.4°F21.9°C 89% Calm Calm 1.6 mph2.6 kmh 29.92 in1013.2 mb 0.00 in0.0 mm 0.00 in/hr0.0 mm/hr 0.05 in1.3 mm
08:15 PM 75.0°F23.9°C 71.6°F22.0°C 89% 1.6 mph SE2.6 kmh SE 3.1 mph5.0 kmh 29.92 in1013.2 mb 0.00 in0.0 mm 0.00 in/hr0.0 mm/hr 0.05 in1.3 mm
08:20 PM 75.2°F24.0°C 71.8°F22.1°C 89% Calm Calm 3.1 mph5.0 kmh 29.92 in1013.2 mb 0.00 in0.0 mm 0.00 in/hr0.0 mm/hr 0.05 in1.3 mm
08:25 PM 75.4°F24.1°C 72.3°F22.4°C 90% 1.6 mph SE2.6 kmh SE 3.1 mph5.0 kmh 29.92 in1013.2 mb 0.00 in0.0 mm 0.00 in/hr0.0 mm/hr 0.05 in1.3 mm
08:30 PM 75.2°F24.0°C 72.1°F22.3°C 90% Calm Calm 3.1 mph5.0 kmh 29.92 in1013.2 mb 0.00 in0.0 mm 0.00 in/hr0.0 mm/hr 0.05 in1.3 mm
08:35 PM 75.2°F24.0°C 71.8°F22.1°C 89% Calm Calm 2.2 mph3.5 kmh 29.92 in1013.2 mb 0.00 in0.0 mm 0.00 in/hr0.0 mm/hr 0.05 in1.3 mm
08:40 PM 75.0°F23.9°C 71.9°F22.2°C 90% Calm Calm -- 29.92 in1013.2 mb 0.00 in0.0 mm 0.00 in/hr0.0 mm/hr 0.05 in1.3 mm
08:45 PM 75.0°F23.9°C 71.9°F22.2°C 90% Calm Calm 1.6 mph2.6 kmh 29.92 in1013.2 mb 0.00 in0.0 mm 0.00 in/hr0.0 mm/hr 0.05 in1.3 mm
08:50 PM 75.0°F23.9°C 71.9°F22.2°C 90% Calm Calm 1.6 mph2.6 kmh 29.92 in1013.2 mb 0.00 in0.0 mm 0.00 in/hr0.0 mm/hr 0.05 in1.3 mm
08:55 PM 75.0°F23.9°C 71.9°F22.2°C 90% 0.7 mph SE1.1 kmh SE 2.2 mph3.5 kmh 29.92 in1013.2 mb 0.00 in0.0 mm 0.00 in/hr0.0 mm/hr 0.05 in1.3 mm
09:00 PM 75.0°F23.9°C 72.3°F22.4°C 91% 0.7 mph SE1.1 kmh SE 2.2 mph3.5 kmh 29.92 in1013.2 mb 0.00 in0.0 mm 0.00 in/hr0.0 mm/hr 0.05 in1.3 mm
09:05 PM 75.0°F23.9°C 72.3°F22.4°C 91% 0.7 mph SE1.1 kmh SE 2.2 mph3.5 kmh 29.92 in1013.2 mb 0.00 in0.0 mm 0.00 in/hr0.0 mm/hr 0.05 in1.3 mm
09:10 PM 75.2°F24.0°C 71.8°F22.1°C 89% 0.7 mph SE1.1 kmh SE 2.2 mph3.5 kmh 29.92 in1013.2 mb 0.00 in0.0 mm 0.00 in/hr0.0 mm/hr 0.05 in1.3 mm
09:15 PM 75.2°F24.0°C 72.1°F22.3°C 90% Calm Calm 2.2 mph3.5 kmh 29.92 in1013.2 mb 0.00 in0.0 mm 0.00 in/hr0.0 mm/hr 0.05 in1.3 mm
09:20 PM 75.2°F24.0°C 71.8°F22.1°C 89% Calm Calm 2.2 mph3.5 kmh 29.92 in1013.2 mb 0.00 in0.0 mm 0.00 in/hr0.0 mm/hr 0.05 in1.3 mm
09:25 PM 75.0°F23.9°C 71.9°F22.2°C 90% 0.7 mph SE1.1 kmh SE 2.2 mph3.5 kmh 29.92 in1013.2 mb 0.00 in0.0 mm 0.00 in/hr0.0 mm/hr 0.05 in1.3 mm
09:30 PM 74.8°F23.8°C 72.1°F22.3°C 91% Calm Calm 2.2 mph3.5 kmh 29.92 in1013.2 mb 0.00 in0.0 mm 0.00 in/hr0.0 mm/hr 0.05 in1.3 mm
09:35 PM 74.8°F23.8°C 71.8°F22.1°C 90% Calm Calm 2.2 mph3.5 kmh 29.92 in1013.2 mb 0.00 in0.0 mm 0.00 in/hr0.0 mm/hr 0.05 in1.3 mm
09:40 PM 74.7°F23.7°C 71.9°F22.2°C 91% Calm Calm -- 29.92 in1013.2 mb 0.00 in0.0 mm 0.00 in/hr0.0 mm/hr 0.05 in1.3 mm
09:45 PM 74.7°F23.7°C 71.9°F22.2°C 91% Calm Calm -- 29.92 in1013.2 mb 0.00 in0.0 mm 0.00 in/hr0.0 mm/hr 0.05 in1.3 mm
09:50 PM 74.7°F23.7°C 71.6°F22.0°C 90% Calm Calm -- 29.92 in1013.2 mb 0.00 in0.0 mm 0.00 in/hr0.0 mm/hr 0.05 in1.3 mm
09:55 PM 74.5°F23.6°C 71.4°F21.9°C 90% 0.7 mph E1.1 kmh E 2.2 mph3.5 kmh 29.92 in1013.2 mb 0.00 in0.0 mm 0.00 in/hr0.0 mm/hr 0.05 in1.3 mm
10:00 PM 74.5°F23.6°C 71.7°F22.1°C 91% Calm Calm 2.2 mph3.5 kmh 29.92 in1013.2 mb 0.00 in0.0 mm 0.00 in/hr0.0 mm/hr 0.05 in1.3 mm
10:05 PM 74.5°F23.6°C 71.7°F22.1°C 91% Calm Calm 2.2 mph3.5 kmh 29.92 in1013.2 mb 0.00 in0.0 mm 0.00 in/hr0.0 mm/hr 0.05 in1.3 mm
10:10 PM 74.3°F23.5°C 71.5°F21.9°C 91% Calm Calm -- 29.92 in1013.2 mb 0.00 in0.0 mm 0.00 in/hr0.0 mm/hr 0.05 in1.3 mm
10:15 PM 74.3°F23.5°C 71.9°F22.2°C 92% Calm Calm -- 29.92 in1013.2 mb 0.00 in0.0 mm 0.00 in/hr0.0 mm/hr 0.05 in1.3 mm
10:20 PM 74.1°F23.4°C 71.7°F22.1°C 92% 0.7 mph SE1.1 kmh SE 2.2 mph3.5 kmh 29.92 in1013.2 mb 0.00 in0.0 mm 0.00 in/hr0.0 mm/hr 0.05 in1.3 mm
10:25 PM 74.1°F23.4°C 71.7°F22.1°C 92% 0.7 mph SE1.1 kmh SE 2.2 mph3.5 kmh 29.92 in1013.2 mb 0.00 in0.0 mm 0.00 in/hr0.0 mm/hr 0.05 in1.3 mm
10:30 PM 73.9°F23.3°C 71.5°F21.9°C 92% Calm Calm 2.2 mph3.5 kmh 29.92 in1013.2 mb 0.00 in0.0 mm 0.00 in/hr0.0 mm/hr 0.05 in1.3 mm
10:35 PM 73.9°F23.3°C 71.5°F21.9°C 92% Calm Calm 1.6 mph2.6 kmh 29.92 in1013.2 mb 0.00 in0.0 mm 0.00 in/hr0.0 mm/hr 0.05 in1.3 mm
10:40 PM 73.9°F23.3°C 71.5°F21.9°C 92% Calm Calm -- 29.92 in1013.2 mb 0.00 in0.0 mm 0.00 in/hr0.0 mm/hr 0.05 in1.3 mm
10:45 PM 73.8°F23.2°C 71.3°F21.8°C 92% Calm Calm -- 29.92 in1013.2 mb 0.00 in0.0 mm 0.00 in/hr0.0 mm/hr 0.05 in1.3 mm
10:50 PM 73.8°F23.2°C 71.3°F21.8°C 92% Calm Calm -- 29.92 in1013.2 mb 0.00 in0.0 mm 0.00 in/hr0.0 mm/hr 0.05 in1.3 mm
10:55 PM 73.8°F23.2°C 71.3°F21.8°C 92% Calm Calm 1.6 mph2.6 kmh 29.92 in1013.2 mb 0.00 in0.0 mm 0.00 in/hr0.0 mm/hr 0.05 in1.3 mm
11:00 PM 73.6°F23.1°C 71.2°F21.8°C 92% Calm Calm 1.6 mph2.6 kmh 29.92 in1013.2 mb 0.00 in0.0 mm 0.00 in/hr0.0 mm/hr 0.05 in1.3 mm
11:05 PM 73.6°F23.1°C 71.2°F21.8°C 92% Calm Calm 1.6 mph2.6 kmh 29.92 in1013.2 mb 0.00 in0.0 mm 0.00 in/hr0.0 mm/hr 0.05 in1.3 mm
11:10 PM 73.4°F23.0°C 71.0°F21.7°C 92% 0.7 mph SE1.1 kmh SE 3.1 mph5.0 kmh 29.92 in1013.2 mb 0.00 in0.0 mm 0.00 in/hr0.0 mm/hr 0.05 in1.3 mm
11:15 PM 73.8°F23.2°C 71.3°F21.8°C 92% Calm Calm 3.1 mph5.0 kmh 29.92 in1013.2 mb 0.00 in0.0 mm 0.00 in/hr0.0 mm/hr 0.05 in1.3 mm
11:20 PM 73.2°F22.9°C 70.5°F21.4°C 91% 1.6 mph SE2.6 kmh SE 3.1 mph5.0 kmh 29.92 in1013.2 mb 0.00 in0.0 mm 0.00 in/hr0.0 mm/hr 0.05 in1.3 mm
11:25 PM 73.0°F22.8°C 70.3°F21.3°C 91% 2.2 mph SE3.5 kmh SE 3.8 mph6.1 kmh 29.92 in1013.2 mb 0.00 in0.0 mm 0.00 in/hr0.0 mm/hr 0.05 in1.3 mm
11:30 PM 73.0°F22.8°C 70.3°F21.3°C 91% 1.6 mph SE2.6 kmh SE 3.8 mph6.1 kmh 29.92 in1013.2 mb 0.00 in0.0 mm 0.00 in/hr0.0 mm/hr 0.05 in1.3 mm
11:35 PM 73.0°F22.8°C 70.3°F21.3°C 91% 1.6 mph SE2.6 kmh SE 3.8 mph6.1 kmh 29.92 in1013.2 mb 0.00 in0.0 mm 0.00 in/hr0.0 mm/hr 0.05 in1.3 mm
11:40 PM 72.9°F22.7°C 70.4°F21.3°C 92% 1.6 mph SE2.6 kmh SE 3.8 mph6.1 kmh 29.92 in1013.2 mb 0.00 in0.0 mm 0.00 in/hr0.0 mm/hr 0.05 in1.3 mm
11:45 PM 73.0°F22.8°C 70.3°F21.3°C 91% Calm Calm 3.1 mph5.0 kmh 29.92 in1013.2 mb 0.00 in0.0 mm 0.00 in/hr0.0 mm/hr 0.05 in1.3 mm
11:50 PM 72.7°F22.6°C 70.3°F21.3°C 92% Calm Calm 3.1 mph5.0 kmh 29.92 in1013.2 mb 0.00 in0.0 mm 0.00 in/hr0.0 mm/hr 0.05 in1.3 mm
11:55 PM 72.7°F22.6°C 70.3°F21.3°C 92% Calm Calm -- 29.92 in1013.2 mb 0.00 in0.0 mm 0.00 in/hr0.0 mm/hr 0.05 in1.3 mm